Historyczne dane pomiarowe

Dodano dane terminowe – wersja testowa.

Dane z okresu 1951-2019

Wersja bazy: 1.34 [2019-03-16, lista zmian], aktualizacja planowana na 2019-04-15

Dane meteo z obszaru Polski uzyskane na podstawie danych udostępnionych przez Instytut Meteorologii i Gospodarki Wodnej – Państwowy Instytut Badawczy.

 

Wybierz Datę:    

       

TemperaturaWilgotnośćWiatrCiśnienieOpadyŚniegCzas trwania zjawisk
 Stacja t tx tn tng RH VA  wxwx mslp ppp RRR   cm mm wxwxwxwxwxwxwx
1997-09-11 11.3 15.0 9.6 8.7 76.5- 4.0 4.0---- 0.0------------
1997-09-12 12.3 20.3 4.3 2.3 79.3- 3.0 3.3---- 0.0------------
1997-09-13 19.1 24.1 14.8 10.0 67.8- 3.0 5.0---- 3.5------------
1997-09-14 13.3 19.3 10.8 9.0 86.3- 7.7 2.3---- 2.0------------
1997-09-15 9.3 16.4 4.5 3.3 84.0- 5.7 1.3---- 0.0------------
1997-09-16 10.5 19.3 4.5 3.3 82.3- 3.0 1.7---- 0.0------------
1997-09-17 11.5 19.9 5.3 2.8 80.3- 0.0 2.7---- 0.0------------
1997-09-18 14.1 20.5 9.4 5.7 77.0- 5.0 2.3---- 0.0------------
1997-09-19 13.9 20.4 11.2 8.1 85.3- 8.0 2.0---- 9.0------------
1997-09-20 9.3 13.0 7.8 7.1 85.5- 3.3 2.7---- 0.0------------
1997-09-21 7.4 14.5 3.6 1.4 84.8- 2.0 1.7---- 0.0------------
1997-09-22 7.5 16.4 1.5 0.4 81.5- 1.3 1.7---- 0.0------------
1997-09-23 10.1 18.1 4.5 1.4 78.8- 2.0 3.0---- 0.0------------
1997-09-24 8.9 12.8 6.3 5.2 83.0- 5.0 2.0---- 0.1------------
1997-09-25 9.4 13.0 5.5 2.3 95.3- 8.0 4.3---- 1.7------------
1997-09-26 12.3 15.5 9.6 8.1 89.3- 6.0 3.0---- 0.3------------
1997-09-27 9.8 13.4 7.6 6.2 80.3- 7.7 2.7---- 0.2------------
1997-09-28 8.9 11.0 8.0 7.6 85.0- 7.3 3.0---- 0.0------------
1997-09-29 8.0 13.5 3.8 1.8 83.0- 6.0 2.0---- 0.1------------
1997-09-30 9.9 12.0 7.6 3.3 92.0- 8.0 3.3---- 17.7------------
1997-10-01 9.5 12.0 8.2 5.7 94.3- 6.7 2.3---- 13.8------------
1997-10-02 9.6 13.0 7.6 3.8 87.0- 7.0 6.3---- 10.9------------
1997-10-03 8.2 11.0 6.5 5.2 89.5- 7.0 5.3---- 7.0------------
1997-10-04 9.9 13.0 7.8 5.2 78.8- 8.0 5.0---- 0.0------------
1997-10-05 12.3 15.0 9.6 8.1 77.3- 8.0 7.3---- 2.6------------
1997-10-06 10.5 14.4 8.6 8.1 95.0- 6.7 1.3---- 0.0------------
1997-10-07 15.1 20.4 9.4 7.1 72.5- 1.3 5.0---- 0.0------------
1997-10-08 16.2 21.9 12.8 8.1 81.5- 6.7 1.3---- 0.0------------
1997-10-09 16.6 20.1 12.4 7.6 81.8- 8.0 4.3---- 0.4------------
1997-10-10 17.1 20.5 15.8 14.1 77.8- 7.7 4.0---- 18.1------------
179.3 ms

 

Źródłem pochodzenia danych jest Instytut Meteorologii i Gospodarki Wodnej – Państwowy Instytut Badawczy. Dane Instytutu Meteorologii i Gospodarki Wodnej – Państwowego Instytutu Badawczego zostały przetworzone.

Dane źródłowe można odnaleźć na stronie https://dane.imgw.pl